sensor_id;sensor_type;location;lat;lon;timestamp;temperature;humidity
65470;DHT22;52067;50.710;14.492;2023-04-01T00:02:16;8.73;86.60
65470;DHT22;52067;50.710;14.492;2023-04-01T00:04:42;8.68;86.61
65470;DHT22;52067;50.710;14.492;2023-04-01T00:07:08;8.73;86.14
65470;DHT22;52067;50.710;14.492;2023-04-01T00:09:34;8.70;86.50
65470;DHT22;52067;50.710;14.492;2023-04-01T00:12:00;8.74;87.29
65470;DHT22;52067;50.710;14.492;2023-04-01T00:14:26;8.64;87.88
65470;DHT22;52067;50.710;14.492;2023-04-01T00:16:51;8.81;87.55
65470;DHT22;52067;50.710;14.492;2023-04-01T00:19:17;8.91;86.70
65470;DHT22;52067;50.710;14.492;2023-04-01T00:21:43;8.92;86.76
65470;DHT22;52067;50.710;14.492;2023-04-01T00:24:08;8.97;87.46
65470;DHT22;52067;50.710;14.492;2023-04-01T00:26:34;8.64;88.51
65470;DHT22;52067;50.710;14.492;2023-04-01T00:28:59;8.42;88.68
65470;DHT22;52067;50.710;14.492;2023-04-01T00:31:25;8.49;89.48
65470;DHT22;52067;50.710;14.492;2023-04-01T00:33:51;8.57;88.40
65470;DHT22;52067;50.710;14.492;2023-04-01T00:36:19;8.61;87.68
65470;DHT22;52067;50.710;14.492;2023-04-01T00:38:45;8.68;87.74
65470;DHT22;52067;50.710;14.492;2023-04-01T00:41:13;8.81;87.00
65470;DHT22;52067;50.710;14.492;2023-04-01T00:43:41;8.73;86.70
65470;DHT22;52067;50.710;14.492;2023-04-01T00:46:06;8.83;86.79
65470;DHT22;52067;50.710;14.492;2023-04-01T00:48:42;8.83;86.69
65470;DHT22;52067;50.710;14.492;2023-04-01T00:51:22;8.81;86.95
65470;DHT22;52067;50.710;14.492;2023-04-01T00:53:51;8.94;86.97
65470;DHT22;52067;50.710;14.492;2023-04-01T00:56:21;9.01;86.68
65470;DHT22;52067;50.710;14.492;2023-04-01T00:58:51;8.98;86.67
65470;DHT22;52067;50.710;14.492;2023-04-01T01:01:20;8.98;87.13
65470;DHT22;52067;50.710;14.492;2023-04-01T01:03:46;9.01;87.00
65470;DHT22;52067;50.710;14.492;2023-04-01T01:06:18;8.77;87.61
65470;DHT22;52067;50.710;14.492;2023-04-01T01:11:37;8.57;89.17
65470;DHT22;52067;50.710;14.492;2023-04-01T01:16:44;8.76;88.58
65470;DHT22;52067;50.710;14.492;2023-04-01T01:19:46;8.33;89.62
65470;DHT22;52067;50.710;14.492;2023-04-01T01:27:41;8.46;89.73
65470;DHT22;52067;50.710;14.492;2023-04-01T01:30:28;8.59;89.36
65470;DHT22;52067;50.710;14.492;2023-04-01T01:33:17;8.66;89.09
65470;DHT22;52067;50.710;14.492;2023-04-01T01:35:56;8.66;89.07
65470;DHT22;52067;50.710;14.492;2023-04-01T01:38:26;8.63;88.91
65470;DHT22;52067;50.710;14.492;2023-04-01T01:40:53;8.71;88.80
65470;DHT22;52067;50.710;14.492;2023-04-01T01:43:24;8.60;89.02
65470;DHT22;52067;50.710;14.492;2023-04-01T01:46:00;8.68;88.84
65470;DHT22;52067;50.710;14.492;2023-04-01T01:48:27;8.68;88.67
65470;DHT22;52067;50.710;14.492;2023-04-01T01:50:54;8.68;88.70
65470;DHT22;52067;50.710;14.492;2023-04-01T01:53:20;8.59;88.79
65470;DHT22;52067;50.710;14.492;2023-04-01T01:55:47;8.19;89.69
65470;DHT22;52067;50.710;14.492;2023-04-01T01:58:27;8.24;90.23
65470;DHT22;52067;50.710;14.492;2023-04-01T02:00:57;8.42;89.81
65470;DHT22;52067;50.710;14.492;2023-04-01T02:03:25;8.28;90.10
65470;DHT22;52067;50.710;14.492;2023-04-01T02:05:53;8.19;90.07
65470;DHT22;52067;50.710;14.492;2023-04-01T02:08:35;8.39;89.82
65470;DHT22;52067;50.710;14.492;2023-04-01T02:11:05;8.45;89.39
65470;DHT22;52067;50.710;14.492;2023-04-01T02:13:38;8.33;89.38
65470;DHT22;52067;50.710;14.492;2023-04-01T02:16:15;8.29;89.99
65470;DHT22;52067;50.710;14.492;2023-04-01T02:18:43;8.21;89.62
65470;DHT22;52067;50.710;14.492;2023-04-01T02:21:13;8.36;89.93
65470;DHT22;52067;50.710;14.492;2023-04-01T02:23:40;8.40;89.49
65470;DHT22;52067;50.710;14.492;2023-04-01T02:26:07;8.15;89.93
65470;DHT22;52067;50.710;14.492;2023-04-01T02:28:34;8.16;90.29
65470;DHT22;52067;50.710;14.492;2023-04-01T02:31:02;8.28;89.98
65470;DHT22;52067;50.710;14.492;2023-04-01T02:33:30;8.29;89.80
65470;DHT22;52067;50.710;14.492;2023-04-01T02:35:56;8.15;90.06
65470;DHT22;52067;50.710;14.492;2023-04-01T02:38:22;8.28;89.78
65470;DHT22;52067;50.710;14.492;2023-04-01T02:40:51;8.29;89.61
65470;DHT22;52067;50.710;14.492;2023-04-01T02:43:16;7.85;90.42
65470;DHT22;52067;50.710;14.492;2023-04-01T02:45:43;7.64;90.86
65470;DHT22;52067;50.710;14.492;2023-04-01T02:48:08;7.61;90.94
65470;DHT22;52067;50.710;14.492;2023-04-01T02:50:34;7.60;90.97
65470;DHT22;52067;50.710;14.492;2023-04-01T02:53:00;7.68;90.84
65470;DHT22;52067;50.710;14.492;2023-04-01T02:55:26;7.85;90.80
65470;DHT22;52067;50.710;14.492;2023-04-01T02:57:51;7.82;90.49
65470;DHT22;52067;50.710;14.492;2023-04-01T03:00:17;7.95;90.38
65470;DHT22;52067;50.710;14.492;2023-04-01T03:02:42;8.03;90.13
65470;DHT22;52067;50.710;14.492;2023-04-01T03:05:09;8.13;89.91
65470;DHT22;52067;50.710;14.492;2023-04-01T03:07:35;8.06;90.00
65470;DHT22;52067;50.710;14.492;2023-04-01T03:10:00;8.16;89.77
65470;DHT22;52067;50.710;14.492;2023-04-01T03:12:26;8.16;89.45
65470;DHT22;52067;50.710;14.492;2023-04-01T03:14:51;8.25;89.31
65470;DHT22;52067;50.710;14.492;2023-04-01T03:17:17;8.08;89.52
65470;DHT22;52067;50.710;14.492;2023-04-01T03:19:42;8.13;89.65
65470;DHT22;52067;50.710;14.492;2023-04-01T03:22:10;8.16;89.65
65470;DHT22;52067;50.710;14.492;2023-04-01T03:24:36;7.88;89.92
65470;DHT22;52067;50.710;14.492;2023-04-01T03:27:01;7.95;90.32
65470;DHT22;52067;50.710;14.492;2023-04-01T03:29:27;7.95;90.39
65470;DHT22;52067;50.710;14.492;2023-04-01T03:31:52;8.05;90.15
65470;DHT22;52067;50.710;14.492;2023-04-01T03:34:18;8.10;89.89
65470;DHT22;52067;50.710;14.492;2023-04-01T03:36:43;8.21;89.68
65470;DHT22;52067;50.710;14.492;2023-04-01T03:39:08;8.22;89.50
65470;DHT22;52067;50.710;14.492;2023-04-01T03:41:36;8.29;89.28
65470;DHT22;52067;50.710;14.492;2023-04-01T03:44:02;8.19;89.40
65470;DHT22;52067;50.710;14.492;2023-04-01T03:46:28;8.25;89.24
65470;DHT22;52067;50.710;14.492;2023-04-01T03:48:53;8.33;89.10
65470;DHT22;52067;50.710;14.492;2023-04-01T03:51:19;8.30;88.95
65470;DHT22;52067;50.710;14.492;2023-04-01T03:53:44;7.99;89.97
65470;DHT22;52067;50.710;14.492;2023-04-01T03:56:10;7.97;90.23
65470;DHT22;52067;50.710;14.492;2023-04-01T03:58:36;7.95;90.01
65470;DHT22;52067;50.710;14.492;2023-04-01T04:01:02;7.58;90.92
65470;DHT22;52067;50.710;14.492;2023-04-01T04:03:27;7.87;90.64
65470;DHT22;52067;50.710;14.492;2023-04-01T04:05:53;7.94;90.35
65470;DHT22;52067;50.710;14.492;2023-04-01T04:08:18;8.05;89.94
65470;DHT22;52067;50.710;14.492;2023-04-01T04:10:44;8.05;89.89
65470;DHT22;52067;50.710;14.492;2023-04-01T04:13:09;8.08;89.69
65470;DHT22;52067;50.710;14.492;2023-04-01T04:15:35;8.18;89.59
65470;DHT22;52067;50.710;14.492;2023-04-01T04:18:00;7.82;89.90
65470;DHT22;52067;50.710;14.492;2023-04-01T04:20:26;7.61;90.53
65470;DHT22;52067;50.710;14.492;2023-04-01T04:22:51;7.78;90.52
65470;DHT22;52067;50.710;14.492;2023-04-01T04:25:17;7.68;90.75
65470;DHT22;52067;50.710;14.492;2023-04-01T04:27:42;7.75;90.42
65470;DHT22;52067;50.710;14.492;2023-04-01T04:30:08;7.66;90.69
65470;DHT22;52067;50.710;14.492;2023-04-01T04:32:34;7.85;90.47
65470;DHT22;52067;50.710;14.492;2023-04-01T04:35:00;7.94;90.12
65470;DHT22;52067;50.710;14.492;2023-04-01T04:37:25;7.68;90.35
65470;DHT22;52067;50.710;14.492;2023-04-01T04:39:51;7.58;90.80
65470;DHT22;52067;50.710;14.492;2023-04-01T04:42:17;7.46;90.95
65470;DHT22;52067;50.710;14.492;2023-04-01T04:44:42;7.64;91.09
65470;DHT22;52067;50.710;14.492;2023-04-01T04:47:07;7.81;90.78
65470;DHT22;52067;50.710;14.492;2023-04-01T04:49:33;7.84;90.54
65470;DHT22;52067;50.710;14.492;2023-04-01T04:51:58;7.98;90.30
65470;DHT22;52067;50.710;14.492;2023-04-01T04:54:24;7.84;90.31
65470;DHT22;52067;50.710;14.492;2023-04-01T04:56:51;7.95;90.16
65470;DHT22;52067;50.710;14.492;2023-04-01T04:59:17;7.74;90.54
65470;DHT22;52067;50.710;14.492;2023-04-01T05:01:42;7.58;90.93
65470;DHT22;52067;50.710;14.492;2023-04-01T05:04:07;7.39;91.24
65470;DHT22;52067;50.710;14.492;2023-04-01T05:06:33;7.27;91.33
65470;DHT22;52067;50.710;14.492;2023-04-01T05:08:58;7.44;91.25
65470;DHT22;52067;50.710;14.492;2023-04-01T05:11:24;7.56;91.09
65470;DHT22;52067;50.710;14.492;2023-04-01T05:13:51;7.66;90.87
65470;DHT22;52067;50.710;14.492;2023-04-01T05:16:19;7.79;90.75
65470;DHT22;52067;50.710;14.492;2023-04-01T05:18:45;8.01;90.43
65470;DHT22;52067;50.710;14.492;2023-04-01T05:21:12;7.81;90.65
65470;DHT22;52067;50.710;14.492;2023-04-01T05:23:38;7.56;91.10
65470;DHT22;52067;50.710;14.492;2023-04-01T05:26:09;7.58;91.22
65470;DHT22;52067;50.710;14.492;2023-04-01T05:28:35;7.75;91.06
65470;DHT22;52067;50.710;14.492;2023-04-01T05:31:04;7.68;90.80
65470;DHT22;52067;50.710;14.492;2023-04-01T05:33:30;7.87;90.96
65470;DHT22;52067;50.710;14.492;2023-04-01T05:35:56;7.91;90.54
65470;DHT22;52067;50.710;14.492;2023-04-01T05:38:30;7.75;91.07
65470;DHT22;52067;50.710;14.492;2023-04-01T05:40:59;7.91;90.96
65470;DHT22;52067;50.710;14.492;2023-04-01T05:43:25;7.92;90.77
65470;DHT22;52067;50.710;14.492;2023-04-01T05:45:50;7.94;91.05
65470;DHT22;52067;50.710;14.492;2023-04-01T05:48:16;8.16;90.77
65470;DHT22;52067;50.710;14.492;2023-04-01T05:50:41;7.97;90.85
65470;DHT22;52067;50.710;14.492;2023-04-01T05:53:07;8.18;90.70
65470;DHT22;52067;50.710;14.492;2023-04-01T05:55:34;8.30;90.47
65470;DHT22;52067;50.710;14.492;2023-04-01T05:58:00;8.43;89.99
65470;DHT22;52067;50.710;14.492;2023-04-01T06:00:26;8.45;89.99
65470;DHT22;52067;50.710;14.492;2023-04-01T06:02:51;8.32;89.88
65470;DHT22;52067;50.710;14.492;2023-04-01T06:05:26;8.08;90.34
65470;DHT22;52067;50.710;14.492;2023-04-01T06:08:05;8.19;90.81
65470;DHT22;52067;50.710;14.492;2023-04-01T06:26:59;8.43;90.86
65470;DHT22;52067;50.710;14.492;2023-04-01T06:46:14;8.91;90.33
65470;DHT22;52067;50.710;14.492;2023-04-01T06:49:00;9.21;89.93
65470;DHT22;52067;50.710;14.492;2023-04-01T06:54:18;9.24;89.35
65470;DHT22;52067;50.710;14.492;2023-04-01T06:56:48;9.29;89.45
65470;DHT22;52067;50.710;14.492;2023-04-01T06:59:22;9.32;89.59
65470;DHT22;52067;50.710;14.492;2023-04-01T07:01:55;9.16;90.03
65470;DHT22;52067;50.710;14.492;2023-04-01T07:04:37;9.38;89.49
65470;DHT22;52067;50.710;14.492;2023-04-01T07:07:10;9.26;89.51
65470;DHT22;52067;50.710;14.492;2023-04-01T07:09:40;9.28;89.99
65470;DHT22;52067;50.710;14.492;2023-04-01T07:12:15;9.62;89.61
65470;DHT22;52067;50.710;14.492;2023-04-01T07:14:47;9.87;89.23
65470;DHT22;52067;50.710;14.492;2023-04-01T07:17:17;9.98;89.07
65470;DHT22;52067;50.710;14.492;2023-04-01T07:19:52;9.98;87.97
65470;DHT22;52067;50.710;14.492;2023-04-01T07:24:49;10.22;86.62
65470;DHT22;52067;50.710;14.492;2023-04-01T07:27:15;10.20;86.55
65470;DHT22;52067;50.710;14.492;2023-04-01T07:29:41;10.12;84.67
65470;DHT22;52067;50.710;14.492;2023-04-01T07:35:09;10.21;85.75
65470;DHT22;52067;50.710;14.492;2023-04-01T07:43:18;10.62;83.10
65470;DHT22;52067;50.710;14.492;2023-04-01T07:48:36;10.88;82.51
65470;DHT22;52067;50.710;14.492;2023-04-01T07:53:43;11.07;80.69
65470;DHT22;52067;50.710;14.492;2023-04-01T07:56:20;11.19;82.08
65470;DHT22;52067;50.710;14.492;2023-04-01T07:59:05;11.17;78.71
65470;DHT22;52067;50.710;14.492;2023-04-01T08:01:36;11.10;80.89
65470;DHT22;52067;50.710;14.492;2023-04-01T08:04:12;11.19;79.50
65470;DHT22;52067;50.710;14.492;2023-04-01T08:15:07;11.71;76.01
65470;DHT22;52067;50.710;14.492;2023-04-01T08:23:31;11.48;75.79
65470;DHT22;52067;50.710;14.492;2023-04-01T08:26:57;11.47;75.32
65470;DHT22;52067;50.710;14.492;2023-04-01T08:29:09;11.61;76.53
65470;DHT22;52067;50.710;14.492;2023-04-01T08:34:15;11.19;76.93
65470;DHT22;52067;50.710;14.492;2023-04-01T08:36:46;11.58;78.86
65470;DHT22;52067;50.710;14.492;2023-04-01T08:39:58;11.24;79.34
65470;DHT22;52067;50.710;14.492;2023-04-01T08:45:32;11.57;79.82
65470;DHT22;52067;50.710;14.492;2023-04-01T08:58:46;11.90;75.65
65470;DHT22;52067;50.710;14.492;2023-04-01T09:09:03;11.78;75.93
65470;DHT22;52067;50.710;14.492;2023-04-01T09:24:42;11.93;71.85
65470;DHT22;52067;50.710;14.492;2023-04-01T09:27:26;11.78;73.49
65470;DHT22;52067;50.710;14.492;2023-04-01T09:30:18;12.07;71.40
65470;DHT22;52067;50.710;14.492;2023-04-01T09:40:47;12.63;74.54
65470;DHT22;52067;50.710;14.492;2023-04-01T09:43:33;12.46;70.19
65470;DHT22;52067;50.710;14.492;2023-04-01T09:51:53;12.63;69.65
65470;DHT22;52067;50.710;14.492;2023-04-01T10:00:06;12.84;72.23
65470;DHT22;52067;50.710;14.492;2023-04-01T10:37:16;13.44;66.92
65470;DHT22;52067;50.710;14.492;2023-04-01T10:42:45;13.02;68.08
65470;DHT22;52067;50.710;14.492;2023-04-01T10:48:47;12.81;70.81
65470;DHT22;52067;50.710;14.492;2023-04-01T10:51:29;12.19;73.30
65470;DHT22;52067;50.710;14.492;2023-04-01T11:19:17;12.87;71.06
65470;DHT22;52067;50.710;14.492;2023-04-01T11:30:32;14.43;64.68
65470;DHT22;52067;50.710;14.492;2023-04-01T11:33:07;14.11;65.06
65470;DHT22;52067;50.710;14.492;2023-04-01T11:35:55;13.84;66.13
65470;DHT22;52067;50.710;14.492;2023-04-01T11:41:32;13.53;67.20
65470;DHT22;52067;50.710;14.492;2023-04-01T11:46:59;12.92;69.80
65470;DHT22;52067;50.710;14.492;2023-04-01T11:52:35;13.77;69.12
65470;DHT22;52067;50.710;14.492;2023-04-01T11:55:16;13.63;66.83
65470;DHT22;52067;50.710;14.492;2023-04-01T11:57:53;13.60;67.70
65470;DHT22;52067;50.710;14.492;2023-04-01T12:06:44;12.50;70.69
65470;DHT22;52067;50.710;14.492;2023-04-01T12:12:16;12.12;74.23
65470;DHT22;52067;50.710;14.492;2023-04-01T12:15:08;12.03;75.64
65470;DHT22;52067;50.710;14.492;2023-04-01T12:18:04;12.33;75.41
65470;DHT22;52067;50.710;14.492;2023-04-01T12:21:02;12.81;76.15
65470;DHT22;52067;50.710;14.492;2023-04-01T13:08:35;13.40;72.03
65470;DHT22;52067;50.710;14.492;2023-04-01T13:11:14;13.16;73.31
65470;DHT22;52067;50.710;14.492;2023-04-01T13:19:38;14.04;65.05
65470;DHT22;52067;50.710;14.492;2023-04-01T13:27:51;14.73;66.94
65470;DHT22;52067;50.710;14.492;2023-04-01T13:30:33;15.11;67.69
65470;DHT22;52067;50.710;14.492;2023-04-01T13:43:47;13.15;72.96
65470;DHT22;52067;50.710;14.492;2023-04-01T13:46:34;12.89;74.18
65470;DHT22;52067;50.710;14.492;2023-04-01T14:03:27;11.30;77.42
65470;DHT22;52067;50.710;14.492;2023-04-01T14:09:11;10.59;82.58
65470;DHT22;52067;50.710;14.492;2023-04-01T14:11:45;10.89;83.92
65470;DHT22;52067;50.710;14.492;2023-04-01T14:14:35;11.37;83.82
65470;DHT22;52067;50.710;14.492;2023-04-01T14:23:37;12.92;81.26
65470;DHT22;52067;50.710;14.492;2023-04-01T14:51:46;14.58;70.86
65470;DHT22;52067;50.710;14.492;2023-04-01T14:54:15;13.09;78.38
65470;DHT22;52067;50.710;14.492;2023-04-01T14:59:51;13.02;76.66
65470;DHT22;52067;50.710;14.492;2023-04-01T15:18:09;11.78;74.67
65470;DHT22;52067;50.710;14.492;2023-04-01T15:26:26;11.21;78.28
65470;DHT22;52067;50.710;14.492;2023-04-01T15:31:51;11.11;78.61
65470;DHT22;52067;50.710;14.492;2023-04-01T16:02:31;11.57;80.87
65470;DHT22;52067;50.710;14.492;2023-04-01T16:08:13;11.17;81.92
65470;DHT22;52067;50.710;14.492;2023-04-01T16:10:52;10.96;81.88
65470;DHT22;52067;50.710;14.492;2023-04-01T16:13:33;11.14;82.32
65470;DHT22;52067;50.710;14.492;2023-04-01T16:19:17;11.13;81.14
65470;DHT22;52067;50.710;14.492;2023-04-01T16:22:08;11.00;81.06
65470;DHT22;52067;50.710;14.492;2023-04-01T16:24:45;11.27;80.64
65470;DHT22;52067;50.710;14.492;2023-04-01T16:27:16;11.28;80.07
65470;DHT22;52067;50.710;14.492;2023-04-01T16:32:21;11.52;80.34
65470;DHT22;52067;50.710;14.492;2023-04-01T16:37:33;11.31;80.96
65470;DHT22;52067;50.710;14.492;2023-04-01T16:43:10;10.72;83.66
65470;DHT22;52067;50.710;14.492;2023-04-01T16:45:37;10.71;83.65
65470;DHT22;52067;50.710;14.492;2023-04-01T16:48:12;10.83;83.05
65470;DHT22;52067;50.710;14.492;2023-04-01T16:55:54;11.01;82.54
65470;DHT22;52067;50.710;14.492;2023-04-01T16:58:39;10.80;83.65
65470;DHT22;52067;50.710;14.492;2023-04-01T17:01:24;10.68;84.53
65470;DHT22;52067;50.710;14.492;2023-04-01T17:03:53;10.68;84.99
65470;DHT22;52067;50.710;14.492;2023-04-01T17:06:28;10.65;84.73
65470;DHT22;52067;50.710;14.492;2023-04-01T17:09:51;10.72;85.27
65470;DHT22;52067;50.710;14.492;2023-04-01T17:23:12;10.63;85.66
65470;DHT22;52067;50.710;14.492;2023-04-01T17:26:01;10.53;85.67
65470;DHT22;52067;50.710;14.492;2023-04-01T17:42:17;10.44;86.34
65470;DHT22;52067;50.710;14.492;2023-04-01T17:50:22;9.19;90.28
65470;DHT22;52067;50.710;14.492;2023-04-01T18:20:58;9.80;89.12
65470;DHT22;52067;50.710;14.492;2023-04-01T18:22:58;9.77;89.14
65470;DHT22;52067;50.710;14.492;2023-04-01T18:25:34;9.91;88.63
65470;DHT22;52067;50.710;14.492;2023-04-01T18:28:53;9.89;88.85
65470;DHT22;52067;50.710;14.492;2023-04-01T18:31:24;10.01;88.41
65470;DHT22;52067;50.710;14.492;2023-04-01T18:36:40;10.11;87.94
65470;DHT22;52067;50.710;14.492;2023-04-01T18:45:23;9.91;87.91
65470;DHT22;52067;50.710;14.492;2023-04-01T18:48:15;9.52;89.50
65470;DHT22;52067;50.710;14.492;2023-04-01T18:56:01;9.59;89.05
65470;DHT22;52067;50.710;14.492;2023-04-01T19:04:26;9.53;89.25
65470;DHT22;52067;50.710;14.492;2023-04-01T19:06:56;9.63;88.91
65470;DHT22;52067;50.710;14.492;2023-04-01T19:09:43;9.47;89.20
65470;DHT22;52067;50.710;14.492;2023-04-01T19:20:17;9.56;89.44
65470;DHT22;52067;50.710;14.492;2023-04-01T19:27:53;9.70;88.96
65470;DHT22;52067;50.710;14.492;2023-04-01T19:30:36;9.56;89.39
65470;DHT22;52067;50.710;14.492;2023-04-01T19:35:59;9.77;88.81
65470;DHT22;52067;50.710;14.492;2023-04-01T19:43:55;9.45;89.90
65470;DHT22;52067;50.710;14.492;2023-04-01T19:46:32;9.53;89.28
65470;DHT22;52067;50.710;14.492;2023-04-01T19:52:04;9.07;90.54
65470;DHT22;52067;50.710;14.492;2023-04-01T19:54:45;9.05;90.56
65470;DHT22;52067;50.710;14.492;2023-04-01T19:57:25;9.21;90.26
65470;DHT22;52067;50.710;14.492;2023-04-01T20:00:15;9.31;90.06
65470;DHT22;52067;50.710;14.492;2023-04-01T20:02:58;9.43;89.69
65470;DHT22;52067;50.710;14.492;2023-04-01T20:08:15;9.60;89.12
65470;DHT22;52067;50.710;14.492;2023-04-01T20:11:01;9.35;89.23
65470;DHT22;52067;50.710;14.492;2023-04-01T20:13:55;8.95;90.56
65470;DHT22;52067;50.710;14.492;2023-04-01T20:19:36;9.14;90.58
65470;DHT22;52067;50.710;14.492;2023-04-01T20:22:08;9.26;90.12
65470;DHT22;52067;50.710;14.492;2023-04-01T20:24:45;9.11;90.04
65470;DHT22;52067;50.710;14.492;2023-04-01T20:27:17;9.11;90.14
65470;DHT22;52067;50.710;14.492;2023-04-01T20:33:12;9.35;89.41
65470;DHT22;52067;50.710;14.492;2023-04-01T20:42:21;9.26;89.17
65470;DHT22;52067;50.710;14.492;2023-04-01T20:44:54;9.05;90.08
65470;DHT22;52067;50.710;14.492;2023-04-01T20:53:05;9.26;89.23
65470;DHT22;52067;50.710;14.492;2023-04-01T21:01:44;8.97;90.25
65470;DHT22;52067;50.710;14.492;2023-04-01T21:14:01;9.00;89.94
65470;DHT22;52067;50.710;14.492;2023-04-01T21:16:31;9.05;89.61
65470;DHT22;52067;50.710;14.492;2023-04-01T21:19:12;9.04;89.45
65470;DHT22;52067;50.710;14.492;2023-04-01T21:37:54;8.95;89.38
65470;DHT22;52067;50.710;14.492;2023-04-01T21:54:13;8.68;89.36
65470;DHT22;52067;50.710;14.492;2023-04-01T22:05:15;8.28;90.96
65470;DHT22;52067;50.710;14.492;2023-04-01T22:08:11;8.46;90.53
65470;DHT22;52067;50.710;14.492;2023-04-01T22:18:45;8.32;89.87
65470;DHT22;52067;50.710;14.492;2023-04-01T22:27:00;7.99;90.11
65470;DHT22;52067;50.710;14.492;2023-04-01T22:32:04;7.97;90.85
65470;DHT22;52067;50.710;14.492;2023-04-01T22:34:43;7.92;90.41
65470;DHT22;52067;50.710;14.492;2023-04-01T22:37:30;7.77;90.95
65470;DHT22;52067;50.710;14.492;2023-04-01T22:42:50;7.81;90.64
65470;DHT22;52067;50.710;14.492;2023-04-01T22:45:39;7.54;90.99
65470;DHT22;52067;50.710;14.492;2023-04-01T22:53:16;7.73;90.93
65470;DHT22;52067;50.710;14.492;2023-04-01T22:55:44;7.84;90.59
65470;DHT22;52067;50.710;14.492;2023-04-01T22:58:15;7.97;90.33
65470;DHT22;52067;50.710;14.492;2023-04-01T23:00:45;7.56;90.70
65470;DHT22;52067;50.710;14.492;2023-04-01T23:03:22;7.48;91.10
65470;DHT22;52067;50.710;14.492;2023-04-01T23:05:58;7.68;90.86
65470;DHT22;52067;50.710;14.492;2023-04-01T23:11:18;7.88;90.10
65470;DHT22;52067;50.710;14.492;2023-04-01T23:13:52;7.84;89.87
65470;DHT22;52067;50.710;14.492;2023-04-01T23:16:24;7.88;89.93
65470;DHT22;52067;50.710;14.492;2023-04-01T23:18:57;7.91;89.75
65470;DHT22;52067;50.710;14.492;2023-04-01T23:21:45;7.73;90.12
65470;DHT22;52067;50.710;14.492;2023-04-01T23:24:25;7.78;89.91
65470;DHT22;52067;50.710;14.492;2023-04-01T23:26:58;7.88;89.78
65470;DHT22;52067;50.710;14.492;2023-04-01T23:29:26;7.98;89.52
65470;DHT22;52067;50.710;14.492;2023-04-01T23:32:00;8.09;89.52
65470;DHT22;52067;50.710;14.492;2023-04-01T23:34:31;8.15;89.44
65470;DHT22;52067;50.710;14.492;2023-04-01T23:37:05;7.99;89.49
65470;DHT22;52067;50.710;14.492;2023-04-01T23:39:41;8.15;89.73
65470;DHT22;52067;50.710;14.492;2023-04-01T23:44:37;8.06;89.60
65470;DHT22;52067;50.710;14.492;2023-04-01T23:47:04;8.18;89.56
65470;DHT22;52067;50.710;14.492;2023-04-01T23:49:37;8.25;89.32
65470;DHT22;52067;50.710;14.492;2023-04-01T23:52:23;8.33;89.05
65470;DHT22;52067;50.710;14.492;2023-04-01T23:54:54;8.30;89.43
65470;DHT22;52067;50.710;14.492;2023-04-01T23:57:40;8.46;89.14
